Time;durP1;ratioP1;P1;durP2;ratioP2;P2;SDS_P1;SDS_P2;PMS_P1;PMS_P2;Temp;Humidity;BMP_temperature;BMP_pressure;BME280_temperature;BME280_humidity;BME280_pressure;Samples;Min_cycle;Max_cycle;Signal;HPM_P1;HPM_P2
2022/05/04 00:00:21;;;;;;;7.80;7.10;;;12.30;94.10;;;;;;5097293;28;20184;-40
2022/05/04 00:02:47;;;;;;;9.83;8.30;;;12.30;93.90;;;;;;5097588;28;20433;-40
2022/05/04 00:05:13;;;;;;;8.07;7.27;;;12.30;93.80;;;;;;5097971;28;20747;-39
2022/05/04 00:07:38;;;;;;;7.70;7.03;;;12.30;93.80;;;;;;5096898;28;20201;-39
2022/05/04 00:10:05;;;;;;;11.13;7.23;;;12.20;93.90;;;;;;5095669;28;20517;-42
2022/05/04 00:12:32;;;;;;;7.40;6.70;;;12.10;93.90;;;;;;5096299;28;20216;-41
2022/05/04 00:14:58;;;;;;;8.57;7.77;;;12.10;94.00;;;;;;5095275;28;20999;-40
2022/05/04 00:17:24;;;;;;;9.77;8.07;;;12.10;94.10;;;;;;5095564;28;20485;-39
2022/05/04 00:19:49;;;;;;;7.97;7.37;;;12.00;94.10;;;;;;5097340;28;20811;-39
2022/05/04 00:22:19;;;;;;;8.00;7.30;;;12.00;94.10;;;;;;5097858;28;20169;-39
2022/05/04 00:24:45;;;;;;;8.90;8.10;;;12.00;94.10;;;;;;5098168;28;20205;-42
2022/05/04 00:27:11;;;;;;;9.83;8.83;;;11.90;94.10;;;;;;5096873;28;20920;-38
2022/05/04 00:29:37;;;;;;;9.87;8.93;;;11.90;94.20;;;;;;5097179;28;20212;-38
2022/05/04 00:32:04;;;;;;;8.47;7.77;;;11.80;94.20;;;;;;5097977;28;20451;-39
2022/05/04 00:34:30;;;;;;;8.80;8.10;;;11.80;94.30;;;;;;5097046;28;20449;-38
2022/05/04 00:36:59;;;;;;;10.13;9.23;;;11.80;94.50;;;;;;5097884;28;20411;-38
2022/05/04 00:39:24;;;;;;;8.20;7.40;;;11.80;94.60;;;;;;5097819;28;20423;-39
2022/05/04 00:41:50;;;;;;;9.60;8.63;;;11.80;94.70;;;;;;5098022;28;20522;-38
2022/05/04 00:44:16;;;;;;;9.07;8.27;;;11.70;94.70;;;;;;5097639;28;20176;-41
2022/05/04 00:46:41;;;;;;;9.60;8.33;;;11.70;94.70;;;;;;5097436;28;20188;-38
2022/05/04 00:49:07;;;;;;;8.17;7.47;;;11.70;94.70;;;;;;5097631;28;20251;-40
2022/05/04 00:51:32;;;;;;;8.40;7.70;;;11.70;94.60;;;;;;5097764;28;20180;-40
2022/05/04 00:53:58;;;;;;;7.93;7.23;;;11.70;94.60;;;;;;5096593;28;20244;-39
2022/05/04 00:56:24;;;;;;;8.17;7.57;;;11.60;94.60;;;;;;5096903;28;20560;-39
2022/05/04 00:58:56;;;;;;;8.33;7.63;;;11.60;94.60;;;;;;5097574;28;20177;-39
2022/05/04 01:01:31;;;;;;;7.80;7.00;;;11.60;94.50;;;;;;5097384;28;20851;-39
2022/05/04 01:03:58;;;;;;;9.00;8.20;;;11.60;94.30;;;;;;5096896;28;20422;-42
2022/05/04 01:06:24;;;;;;;8.10;7.40;;;11.60;94.30;;;;;;5097733;28;20724;-39
2022/05/04 01:08:50;;;;;;;9.17;8.27;;;11.60;94.30;;;;;;5097515;28;20515;-39
2022/05/04 01:11:17;;;;;;;9.03;8.23;;;11.60;94.30;;;;;;5097324;28;20472;-41
2022/05/04 01:13:43;;;;;;;7.20;6.50;;;11.60;94.30;;;;;;5097233;28;20426;-37
2022/05/04 01:16:09;;;;;;;10.50;8.13;;;11.50;94.30;;;;;;5097537;28;20767;-40
2022/05/04 01:18:34;;;;;;;8.30;7.60;;;11.50;94.40;;;;;;5097350;28;20177;-42
2022/05/04 01:21:02;;;;;;;8.10;7.40;;;11.40;94.40;;;;;;5098222;28;20492;-39
2022/05/04 01:23:28;;;;;;;8.90;7.40;;;11.40;94.50;;;;;;5100310;28;20176;-40
2022/05/04 01:25:54;;;;;;;8.10;7.40;;;11.30;94.40;;;;;;5101397;28;20475;-39
2022/05/04 01:28:20;;;;;;;8.87;8.07;;;11.30;94.50;;;;;;5101095;28;20234;-42
2022/05/04 01:30:45;;;;;;;8.60;7.70;;;11.20;94.40;;;;;;5101617;28;20618;-41
2022/05/04 01:33:11;;;;;;;9.10;8.20;;;11.20;94.50;;;;;;5101045;28;20455;-38
2022/05/04 01:35:37;;;;;;;8.70;7.90;;;11.20;94.50;;;;;;5100823;28;20185;-42
2022/05/04 01:38:02;;;;;;;8.67;7.83;;;11.20;94.50;;;;;;5100754;28;20241;-47
2022/05/04 01:40:28;;;;;;;9.07;8.37;;;11.20;94.50;;;;;;5100014;28;20191;-47
2022/05/04 01:42:54;;;;;;;7.90;7.20;;;11.20;94.50;;;;;;5100608;28;20188;-48
2022/05/04 01:45:19;;;;;;;8.60;7.80;;;11.10;94.50;;;;;;5101127;28;20185;-47
2022/05/04 01:47:49;;;;;;;8.20;7.50;;;11.10;94.50;;;;;;5101200;28;20210;-48
2022/05/04 01:50:15;;;;;;;9.00;8.20;;;11.10;94.60;;;;;;5101090;28;20269;-46
2022/05/04 01:52:41;;;;;;;8.97;8.17;;;11.10;94.40;;;;;;5099324;28;20825;-47
2022/05/04 01:55:07;;;;;;;8.40;7.70;;;11.20;94.30;;;;;;5099296;28;20426;-46
2022/05/04 01:57:33;;;;;;;8.87;8.00;;;11.20;94.30;;;;;;5097864;28;20199;-46
2022/05/04 01:59:58;;;;;;;8.70;7.90;;;11.10;94.30;;;;;;5098831;28;20417;-46
2022/05/04 02:02:26;;;;;;;9.13;8.30;;;11.10;94.40;;;;;;5098356;28;20177;-47
2022/05/04 02:04:52;;;;;;;8.93;8.13;;;11.10;94.60;;;;;;5098742;28;20185;-46
2022/05/04 02:07:18;;;;;;;8.60;7.80;;;11.10;94.60;;;;;;5099281;28;20506;-46
2022/05/04 02:09:43;;;;;;;8.07;7.37;;;11.10;94.50;;;;;;5100529;28;20556;-46
2022/05/04 02:12:09;;;;;;;9.00;8.20;;;11.10;94.50;;;;;;5100368;28;20196;-46
2022/05/04 02:14:35;;;;;;;8.60;7.80;;;11.10;94.70;;;;;;5100376;28;20173;-46
2022/05/04 02:17:01;;;;;;;9.67;8.73;;;11.10;94.80;;;;;;5099882;28;20415;-46
2022/05/04 02:19:26;;;;;;;9.87;9.07;;;11.10;94.90;;;;;;5099826;28;20188;-46
2022/05/04 02:21:52;;;;;;;9.63;8.83;;;11.10;95.00;;;;;;5100161;28;20424;-46
2022/05/04 02:24:18;;;;;;;8.80;8.00;;;11.20;95.10;;;;;;5099632;28;20174;-46
2022/05/04 02:26:44;;;;;;;10.13;7.80;;;11.20;95.10;;;;;;5099480;28;20547;-47
2022/05/04 02:29:09;;;;;;;8.20;7.50;;;11.20;95.10;;;;;;5099871;28;20471;-46
2022/05/04 02:31:35;;;;;;;8.20;7.50;;;11.20;95.20;;;;;;5100200;28;20181;-46
2022/05/04 02:34:00;;;;;;;8.40;7.60;;;11.20;95.10;;;;;;5097976;28;20177;-46
2022/05/04 02:39:10;;;;;;;9.20;8.40;;;11.20;95.20;;;;;;5099210;28;20242;-47
2022/05/04 02:41:36;;;;;;;8.00;7.30;;;11.20;95.20;;;;;;5099704;28;20521;-46
2022/05/04 02:44:02;;;;;;;9.00;8.10;;;11.20;95.20;;;;;;5099760;28;20238;-47
2022/05/04 02:46:28;;;;;;;10.13;8.30;;;11.20;95.20;;;;;;5099546;28;20592;-46
2022/05/04 02:48:54;;;;;;;8.40;7.60;;;11.30;95.60;;;;;;5099017;28;20506;-46
2022/05/04 02:51:20;;;;;;;8.70;7.90;;;11.30;95.30;;;;;;5098710;28;20417;-46
2022/05/04 02:53:45;;;;;;;8.20;7.50;;;11.30;95.40;;;;;;5098497;28;20193;-47
2022/05/04 02:56:13;;;;;;;8.30;7.60;;;11.30;95.40;;;;;;5098770;28;20177;-47
2022/05/04 02:58:39;;;;;;;10.20;9.20;;;11.30;95.40;;;;;;5097972;28;20196;-46
2022/05/04 03:04:04;;;;;;;8.87;8.10;;;11.30;95.30;;;;;;5097334;28;20190;-47
2022/05/04 03:06:30;;;;;;;8.90;8.10;;;11.30;95.30;;;;;;5098242;28;20419;-47
2022/05/04 03:08:56;;;;;;;8.47;7.70;;;11.30;95.40;;;;;;5097829;28;20474;-46
2022/05/04 03:14:08;;;;;;;8.73;7.93;;;11.30;95.40;;;;;;5098608;28;20180;-47
2022/05/04 03:16:35;;;;;;;9.47;8.57;;;11.30;95.40;;;;;;5099216;28;20425;-47
2022/05/04 03:19:02;;;;;;;8.63;7.80;;;11.40;95.40;;;;;;5099116;28;20716;-46
2022/05/04 03:21:27;;;;;;;9.10;8.37;;;11.40;95.40;;;;;;5099079;28;20423;-47
2022/05/04 03:23:53;;;;;;;8.87;8.07;;;11.40;95.50;;;;;;5099059;28;20696;-46
2022/05/04 03:26:18;;;;;;;9.10;8.30;;;11.40;95.40;;;;;;5098424;28;20221;-46
2022/05/04 03:28:45;;;;;;;8.40;7.70;;;11.40;95.50;;;;;;5098944;28;20234;-46
2022/05/04 03:31:11;;;;;;;7.53;6.73;;;11.40;95.50;;;;;;5097379;28;20283;-46
2022/05/04 03:33:37;;;;;;;7.87;7.10;;;11.40;95.50;;;;;;5098591;28;20495;-46
2022/05/04 03:36:03;;;;;;;10.30;8.50;;;11.50;95.50;;;;;;5097927;28;20419;-46
2022/05/04 03:38:28;;;;;;;8.47;7.70;;;11.50;95.50;;;;;;5097783;28;20493;-47
2022/05/04 03:40:54;;;;;;;9.07;8.30;;;11.50;95.50;;;;;;5097571;28;20423;-46
2022/05/04 03:43:20;;;;;;;8.33;7.63;;;11.50;95.60;;;;;;5098195;28;20191;-47
2022/05/04 03:45:46;;;;;;;9.30;8.50;;;11.50;95.60;;;;;;5097388;28;20196;-46
2022/05/04 03:48:12;;;;;;;8.30;7.60;;;11.50;95.60;;;;;;5096852;28;20472;-46
2022/05/04 03:50:37;;;;;;;8.63;7.93;;;11.60;95.60;;;;;;5080395;28;20200;-46
2022/05/04 03:53:03;;;;;;;8.67;7.80;;;11.50;95.60;;;;;;5098243;28;20427;-46
2022/05/04 03:55:29;;;;;;;9.70;8.80;;;11.50;95.70;;;;;;5097540;28;20234;-46
2022/05/04 03:57:55;;;;;;;9.00;8.30;;;11.50;95.70;;;;;;5097962;28;20349;-46
2022/05/04 04:00:20;;;;;;;8.70;7.90;;;11.50;95.70;;;;;;5096961;28;20280;-46
2022/05/04 04:02:46;;;;;;;8.00;7.30;;;11.50;95.70;;;;;;5096978;28;20265;-47
2022/05/04 04:05:12;;;;;;;9.37;8.47;;;11.50;95.60;;;;;;5096428;28;20277;-46
2022/05/04 04:07:38;;;;;;;7.83;7.13;;;11.50;95.70;;;;;;5096353;28;20447;-47
2022/05/04 04:10:04;;;;;;;9.70;8.87;;;11.50;95.70;;;;;;5096868;28;20411;-46
2022/05/04 04:12:30;;;;;;;8.33;7.63;;;11.50;95.70;;;;;;5097041;28;20442;-46
2022/05/04 04:14:56;;;;;;;8.80;8.07;;;11.50;95.80;;;;;;5096661;28;20816;-46
2022/05/04 04:17:21;;;;;;;8.63;7.73;;;11.50;95.80;;;;;;5095885;28;20201;-47
2022/05/04 04:21:50;;;;;;;8.63;7.83;;;11.50;95.90;;;;;;5097333;28;20178;-46
2022/05/04 04:22:32;;;;;;;8.93;8.13;;;11.60;95.90;;;;;;5097177;28;20181;-47
2022/05/04 04:24:58;;;;;;;8.40;7.60;;;11.60;95.80;;;;;;5097365;28;20452;-46
2022/05/04 04:27:23;;;;;;;9.13;8.07;;;11.60;95.80;;;;;;5097102;28;20229;-46
2022/05/04 04:29:49;;;;;;;8.57;7.77;;;11.60;95.70;;;;;;5095947;28;20217;-46
2022/05/04 04:32:15;;;;;;;9.20;8.30;;;11.70;95.80;;;;;;5097699;28;20280;-46
2022/05/04 04:34:40;;;;;;;8.90;8.10;;;11.70;95.80;;;;;;5096857;28;20165;-46
2022/05/04 04:37:06;;;;;;;9.57;8.77;;;11.70;95.80;;;;;;5097067;28;20212;-46
2022/05/04 04:39:31;;;;;;;8.70;8.00;;;11.70;95.80;;;;;;5096576;28;20260;-47
2022/05/04 04:41:57;;;;;;;10.07;9.27;;;11.70;95.80;;;;;;5097402;28;20181;-46
2022/05/04 04:44:22;;;;;;;8.40;7.70;;;11.70;95.80;;;;;;5097216;28;20595;-46
2022/05/04 04:46:48;;;;;;;8.63;7.83;;;11.70;95.80;;;;;;5096183;28;20246;-46
2022/05/04 04:49:14;;;;;;;8.10;7.40;;;11.70;95.80;;;;;;5095446;28;20636;-46
2022/05/04 04:51:39;;;;;;;9.17;8.30;;;11.70;95.80;;;;;;5095835;28;20227;-46
2022/05/04 04:54:05;;;;;;;9.23;8.23;;;11.80;95.80;;;;;;5096667;28;20430;-47
2022/05/04 04:56:31;;;;;;;10.00;9.03;;;11.80;95.90;;;;;;5097018;28;20199;-46
2022/05/04 04:58:56;;;;;;;9.33;8.43;;;11.80;95.90;;;;;;5098262;28;20547;-45
2022/05/04 05:01:22;;;;;;;9.47;8.67;;;11.90;95.90;;;;;;5097402;28;20185;-46
2022/05/04 05:03:47;;;;;;;9.20;8.23;;;11.90;95.90;;;;;;5096872;28;20179;-46
2022/05/04 05:06:13;;;;;;;9.70;8.83;;;11.90;95.80;;;;;;5098124;28;20189;-46
2022/05/04 05:08:41;;;;;;;10.20;9.30;;;11.90;95.80;;;;;;5097429;28;20207;-46
2022/05/04 05:11:07;;;;;;;9.30;8.50;;;12.00;95.90;;;;;;5097661;28;20547;-47
2022/05/04 05:13:32;;;;;;;8.83;7.97;;;12.00;95.90;;;;;;5096600;28;20503;-46
2022/05/04 05:16:07;;;;;;;8.83;8.13;;;12.00;95.90;;;;;;5094781;28;20216;-47
2022/05/04 05:18:32;;;;;;;8.90;8.07;;;12.10;95.90;;;;;;5096558;28;20203;-47
2022/05/04 05:20:58;;;;;;;8.43;7.73;;;12.10;95.90;;;;;;5097648;28;20848;-47
2022/05/04 05:23:24;;;;;;;9.13;8.23;;;12.20;95.90;;;;;;5096916;28;20169;-47
2022/05/04 05:25:50;;;;;;;8.70;7.90;;;12.20;95.80;;;;;;5098022;28;20277;-47
2022/05/04 05:28:16;;;;;;;8.60;7.90;;;12.30;95.90;;;;;;5098545;28;20466;-47
2022/05/04 05:30:42;;;;;;;8.90;7.90;;;12.40;95.90;;;;;;5097639;28;20510;-47
2022/05/04 05:33:08;;;;;;;8.43;7.63;;;12.40;95.80;;;;;;5097667;28;20566;-47
2022/05/04 05:35:34;;;;;;;8.87;8.17;;;12.40;95.80;;;;;;5098137;28;20462;-47
2022/05/04 05:38:00;;;;;;;9.10;8.30;;;12.50;95.90;;;;;;5098601;28;20513;-47
2022/05/04 05:40:26;;;;;;;7.87;7.17;;;12.50;95.90;;;;;;5096078;28;20856;-47
2022/05/04 05:42:52;;;;;;;8.40;7.70;;;12.60;96.00;;;;;;5096591;28;20496;-46
2022/05/04 05:45:18;;;;;;;9.60;8.80;;;12.70;96.00;;;;;;5094749;28;20542;-47
2022/05/04 05:47:43;;;;;;;10.30;8.50;;;12.70;95.90;;;;;;5094521;28;20212;-46
2022/05/04 05:50:11;;;;;;;8.30;7.60;;;12.80;96.00;;;;;;5095935;28;20173;-47
2022/05/04 05:52:36;;;;;;;8.87;8.17;;;12.90;96.00;;;;;;5094905;28;20292;-46
2022/05/04 05:55:03;;;;;;;9.17;8.30;;;12.90;95.90;;;;;;5095377;28;20501;-46
2022/05/04 05:57:28;;;;;;;9.37;8.57;;;13.00;96.00;;;;;;5095570;28;20427;-47
2022/05/04 05:59:54;;;;;;;9.03;8.13;;;13.00;95.90;;;;;;5095377;28;20438;-47
2022/05/04 06:02:19;;;;;;;9.80;8.90;;;13.10;95.80;;;;;;5093062;28;20194;-47
2022/05/04 06:04:46;;;;;;;9.00;8.30;;;13.20;95.90;;;;;;5094454;28;20462;-47
2022/05/04 06:07:12;;;;;;;8.83;8.20;;;13.20;95.50;;;;;;5094765;28;20184;-46
2022/05/04 06:09:38;;;;;;;10.23;9.17;;;13.30;95.50;;;;;;5097143;28;20775;-47
2022/05/04 06:12:04;;;;;;;10.50;9.60;;;13.40;95.40;;;;;;5098780;28;20423;-47
2022/05/04 06:14:29;;;;;;;9.47;8.70;;;13.40;95.40;;;;;;5098966;28;20184;-47
2022/05/04 06:16:55;;;;;;;10.70;9.70;;;13.40;95.30;;;;;;5096046;28;20551;-47
2022/05/04 06:19:21;;;;;;;9.73;8.90;;;13.50;95.30;;;;;;5098460;28;20173;-47
2022/05/04 06:21:46;;;;;;;10.30;8.80;;;13.50;95.10;;;;;;5096557;28;20524;-47
2022/05/04 06:24:12;;;;;;;10.07;9.17;;;13.60;95.10;;;;;;5098529;28;20668;-47
2022/05/04 06:26:37;;;;;;;10.30;9.40;;;13.70;95.10;;;;;;5097487;28;20280;-46
2022/05/04 06:29:03;;;;;;;9.23;8.53;;;13.70;95.00;;;;;;5096422;28;20788;-47
2022/05/04 06:34:13;;;;;;;8.30;7.60;;;13.90;94.90;;;;;;5097417;28;20183;-47
2022/05/04 06:36:40;;;;;;;9.33;8.43;;;14.00;94.60;;;;;;5097993;28;20848;-47
2022/05/04 06:39:07;;;;;;;8.30;7.17;;;14.10;94.50;;;;;;5097631;28;20177;-47
2022/05/04 06:41:34;;;;;;;8.33;7.63;;;14.20;94.40;;;;;;5097581;28;20517;-47
2022/05/04 06:44:00;;;;;;;7.97;7.27;;;14.30;94.20;;;;;;5097262;28;20532;-46
2022/05/04 06:46:25;;;;;;;7.03;6.43;;;14.40;94.10;;;;;;5098952;28;20464;-47
2022/05/04 06:48:51;;;;;;;7.93;7.23;;;14.50;94.00;;;;;;5097652;28;20505;-47
2022/05/04 06:51:17;;;;;;;7.90;7.10;;;14.60;93.90;;;;;;5095037;28;20605;-46
2022/05/04 06:53:42;;;;;;;8.03;7.30;;;14.60;93.70;;;;;;5095810;28;20180;-47
2022/05/04 06:56:08;;;;;;;7.30;6.70;;;14.70;93.60;;;;;;5096267;28;20519;-47
2022/05/04 06:58:34;;;;;;;7.50;6.80;;;14.80;93.60;;;;;;5095742;28;20177;-47
2022/05/04 07:01:00;;;;;;;7.50;6.80;;;14.80;93.40;;;;;;5094979;28;20511;-47
2022/05/04 07:03:25;;;;;;;7.17;6.57;;;14.80;93.30;;;;;;5096341;28;20177;-46
2022/05/04 07:05:51;;;;;;;6.63;5.90;;;14.90;93.30;;;;;;5097445;28;20171;-43
2022/05/04 07:08:18;;;;;;;7.30;6.70;;;14.90;93.10;;;;;;5096920;28;20561;-48
2022/05/04 07:10:44;;;;;;;7.13;6.53;;;15.00;93.10;;;;;;5097495;28;20499;-44
2022/05/04 07:13:10;;;;;;;7.63;6.93;;;15.00;92.90;;;;;;5096188;28;20530;-44
2022/05/04 07:15:35;;;;;;;7.43;6.83;;;15.10;92.90;;;;;;5096121;28;20887;-42
2022/05/04 07:18:01;;;;;;;7.07;6.37;;;15.10;92.80;;;;;;5096298;28;20196;-42
2022/05/04 07:20:27;;;;;;;6.53;5.93;;;15.20;92.70;;;;;;5095081;28;20165;-44
2022/05/04 07:22:53;;;;;;;7.53;6.80;;;15.30;92.80;;;;;;5095809;28;20430;-47
2022/05/04 07:25:21;;;;;;;8.83;7.00;;;15.40;92.70;;;;;;5094235;28;20644;-42
2022/05/04 07:27:47;;;;;;;7.30;6.70;;;15.50;92.70;;;;;;5096401;28;20239;-46
2022/05/04 07:30:14;;;;;;;7.27;6.67;;;15.50;92.50;;;;;;5094840;28;20427;-44
2022/05/04 07:32:40;;;;;;;7.60;6.90;;;15.70;92.40;;;;;;5095775;28;20165;-45
2022/05/04 07:35:08;;;;;;;8.03;6.60;;;15.80;92.30;;;;;;5093906;28;20434;-43
2022/05/04 07:37:34;;;;;;;7.50;6.70;;;15.90;92.10;;;;;;5094151;28;20261;-47
2022/05/04 07:42:44;;;;;;;7.00;6.27;;;16.20;91.70;;;;;;5092549;28;20438;-43
2022/05/04 07:45:12;;;;;;;6.50;5.90;;;16.40;91.40;;;;;;5094027;28;20435;-45
2022/05/04 07:47:39;;;;;;;7.13;6.43;;;16.50;91.10;;;;;;5095844;28;20415;-46
2022/05/04 07:50:06;;;;;;;7.03;6.00;;;16.60;90.90;;;;;;5093449;28;20832;-43
2022/05/04 07:52:32;;;;;;;7.03;6.40;;;16.70;90.70;;;;;;5093917;28;20427;-45
2022/05/04 07:54:57;;;;;;;6.17;5.57;;;16.90;90.50;;;;;;5094045;28;20893;-45
2022/05/04 07:57:23;;;;;;;5.70;5.20;;;17.10;90.30;;;;;;5095279;28;20184;-41
2022/05/04 08:05:20;;;;;;;5.97;5.47;;;17.50;89.30;;;;;;5094956;28;20484;-44
2022/05/04 08:07:46;;;;;;;6.53;5.93;;;17.60;88.60;;;;;;5094482;28;20840;-45
2022/05/04 08:10:11;;;;;;;6.00;5.60;;;17.80;88.20;;;;;;5096606;28;20454;-47
2022/05/04 08:12:37;;;;;;;6.70;6.20;;;17.90;87.60;;;;;;5096852;28;20179;-43
2022/05/04 08:15:03;;;;;;;6.50;5.90;;;18.10;87.10;;;;;;5095441;28;20260;-42
2022/05/04 08:17:29;;;;;;;6.27;5.73;;;18.20;86.30;;;;;;5095754;28;20176;-45
2022/05/04 08:19:54;;;;;;;5.73;5.23;;;18.30;85.40;;;;;;5093889;28;20434;-44
2022/05/04 08:22:20;;;;;;;6.10;5.50;;;18.40;85.00;;;;;;5091499;28;20331;-45
2022/05/04 08:24:46;;;;;;;5.43;4.93;;;18.50;84.50;;;;;;5091023;28;20185;-45
2022/05/04 08:27:11;;;;;;;6.17;5.67;;;18.60;84.20;;;;;;5091974;28;20677;-45
2022/05/04 08:29:37;;;;;;;5.40;5.00;;;18.70;83.90;;;;;;5093461;28;20207;-43
2022/05/04 08:32:03;;;;;;;6.10;5.50;;;18.70;83.30;;;;;;5092064;28;20172;-43
2022/05/04 08:34:29;;;;;;;6.53;5.67;;;18.80;82.80;;;;;;5093062;28;20530;-45
2022/05/04 08:36:55;;;;;;;5.60;5.10;;;18.90;82.40;;;;;;5093550;28;20435;-46
2022/05/04 08:39:21;;;;;;;5.57;5.17;;;18.90;82.00;;;;;;5095062;28;20187;-46
2022/05/04 08:41:47;;;;;;;6.43;5.70;;;19.00;81.80;;;;;;5096057;28;20195;-44
2022/05/04 08:44:12;;;;;;;5.57;5.17;;;19.10;81.40;;;;;;5096036;28;20406;-43
2022/05/04 08:46:40;;;;;;;6.00;5.40;;;19.20;80.90;;;;;;5096499;28;20180;-45
2022/05/04 08:49:06;;;;;;;6.90;6.40;;;19.40;80.90;;;;;;5095066;28;20230;-45
2022/05/04 08:51:33;;;;;;;6.10;5.60;;;19.50;80.60;;;;;;5095361;28;20433;-44
2022/05/04 08:53:58;;;;;;;6.33;5.80;;;19.60;79.80;;;;;;5093910;28;20423;-47
2022/05/04 08:56:24;;;;;;;6.10;5.60;;;19.80;79.20;;;;;;5092155;28;20429;-45
2022/05/04 08:58:50;;;;;;;5.60;5.10;;;20.00;78.80;;;;;;5092652;28;20566;-42
2022/05/04 09:01:16;;;;;;;6.87;6.27;;;20.20;78.30;;;;;;5092715;28;20176;-45
2022/05/04 09:03:42;;;;;;;6.63;6.10;;;20.40;77.90;;;;;;5093450;28;20416;-46
2022/05/04 09:06:07;;;;;;;7.10;6.60;;;20.60;77.20;;;;;;5095108;28;20175;-46
2022/05/04 09:08:52;;;;;;;6.50;5.87;;;20.90;76.70;;;;;;5096138;28;20536;-45
2022/05/04 09:11:22;;;;;;;6.00;5.40;;;21.20;75.90;;;;;;5095512;28;20265;-42
2022/05/04 09:13:48;;;;;;;5.70;5.07;;;21.40;74.90;;;;;;5094984;28;20413;-46
2022/05/04 09:16:25;;;;;;;6.33;5.73;;;21.70;74.20;;;;;;5094438;28;20459;-46
2022/05/04 09:18:51;;;;;;;6.80;4.60;;;21.90;73.20;;;;;;5093819;28;20482;-45
2022/05/04 09:21:22;;;;;;;5.50;5.07;;;22.20;72.20;;;;;;5093457;28;20412;-43
2022/05/04 09:23:52;;;;;;;5.40;4.90;;;22.40;70.90;;;;;;5093868;28;20268;-44
2022/05/04 09:26:19;;;;;;;5.70;5.20;;;22.70;69.60;;;;;;5093557;28;20491;-44
2022/05/04 09:28:51;;;;;;;6.30;5.33;;;23.00;68.90;;;;;;5093909;28;20876;-44
2022/05/04 09:31:20;;;;;;;7.27;5.60;;;23.20;67.90;;;;;;5093208;28;20419;-45
2022/05/04 09:33:53;;;;;;;7.33;5.10;;;23.50;66.80;;;;;;5093367;28;20712;-45
2022/05/04 09:45:11;;;;;;;4.93;4.43;;;24.70;60.80;;;;;;5096799;28;20525;-46
2022/05/04 09:47:38;;;;;;;5.37;4.53;;;25.00;59.60;;;;;;5097082;28;20857;-45
2022/05/04 09:50:04;;;;;;;5.10;4.63;;;25.30;58.90;;;;;;5097329;28;20435;-46
2022/05/04 09:52:42;;;;;;;5.23;4.83;;;25.60;58.20;;;;;;5098740;28;20410;-45
2022/05/04 09:55:20;;;;;;;5.20;4.80;;;25.90;57.30;;;;;;5098228;28;20517;-46
2022/05/04 09:57:47;;;;;;;4.97;4.50;;;26.40;56.50;;;;;;5097872;28;20401;-46
2022/05/04 10:00:14;;;;;;;4.13;3.73;;;26.90;55.50;;;;;;5097170;28;20759;-45
2022/05/04 10:02:41;;;;;;;3.90;3.60;;;27.40;54.20;;;;;;5097221;28;20424;-45
2022/05/04 10:05:08;;;;;;;4.23;3.70;;;27.80;52.80;;;;;;5097393;28;20599;-45
2022/05/04 10:07:37;;;;;;;5.53;4.43;;;28.20;51.70;;;;;;5098174;28;20673;-46
2022/05/04 10:10:07;;;;;;;4.20;3.73;;;28.70;50.50;;;;;;5097552;28;20466;-48
2022/05/04 10:12:38;;;;;;;4.60;4.20;;;29.30;48.50;;;;;;5098286;28;20504;-47
2022/05/04 10:15:07;;;;;;;4.53;4.23;;;29.80;47.20;;;;;;5097189;28;20423;-49
2022/05/04 10:17:34;;;;;;;4.37;3.27;;;30.10;46.20;;;;;;5097219;28;20410;-44
2022/05/04 10:20:06;;;;;;;4.60;4.20;;;30.10;45.30;;;;;;5095919;28;20452;-47
2022/05/04 10:22:47;;;;;;;3.90;3.60;;;30.10;44.60;;;;;;5095819;28;20668;-42
2022/05/04 10:25:14;;;;;;;4.20;3.90;;;30.40;44.10;;;;;;5078610;28;20435;-47
2022/05/04 10:27:41;;;;;;;4.70;4.20;;;30.90;43.10;;;;;;5096971;28;20487;-46
2022/05/04 10:33:08;;;;;;;4.83;4.07;;;32.20;41.40;;;;;;5095616;28;20522;-44
2022/05/04 10:35:46;;;;;;;4.73;4.33;;;32.80;40.50;;;;;;5093631;28;20445;-45
2022/05/04 10:38:27;;;;;;;4.30;3.90;;;32.90;39.40;;;;;;5096236;28;20804;-46
2022/05/04 10:41:06;;;;;;;5.33;4.30;;;33.00;39.40;;;;;;5096326;28;20490;-47
2022/05/04 10:43:42;;;;;;;4.23;3.93;;;33.00;39.10;;;;;;5096764;28;20499;-49
2022/05/04 10:46:20;;;;;;;4.30;3.90;;;33.30;38.60;;;;;;5095761;28;20441;-45
2022/05/04 10:48:54;;;;;;;4.20;3.90;;;33.80;38.50;;;;;;5095305;28;20594;-47
2022/05/04 10:51:21;;;;;;;5.03;3.93;;;34.20;37.30;;;;;;5095522;28;20727;-44
2022/05/04 10:54:01;;;;;;;4.33;3.57;;;34.70;36.50;;;;;;5095297;28;20458;-47
2022/05/04 10:56:28;;;;;;;4.10;3.70;;;35.10;35.70;;;;;;5093705;28;20440;-46
2022/05/04 10:58:59;;;;;;;3.77;3.30;;;35.50;34.80;;;;;;5095689;28;20420;-46
2022/05/04 11:01:34;;;;;;;3.60;3.30;;;35.90;34.30;;;;;;5097679;28;20404;-47
2022/05/04 11:04:13;;;;;;;6.43;4.07;;;36.40;34.20;;;;;;5096654;28;20460;-50
2022/05/04 11:06:54;;;;;;;4.03;3.73;;;36.60;33.80;;;;;;5095293;28;20416;-45
2022/05/04 11:09:31;;;;;;;3.70;3.40;;;36.20;33.30;;;;;;5095867;28;20531;-44
2022/05/04 11:11:59;;;;;;;3.77;3.30;;;35.80;32.80;;;;;;5095053;28;20401;-47
2022/05/04 11:14:24;;;;;;;3.93;3.53;;;35.60;32.70;;;;;;5095792;28;20415;-48
2022/05/04 11:16:51;;;;;;;3.47;3.17;;;35.70;32.80;;;;;;5093823;28;20416;-48
2022/05/04 11:19:18;;;;;;;3.57;3.27;;;35.80;32.60;;;;;;5095757;28;20210;-46
2022/05/04 11:21:44;;;;;;;3.70;3.40;;;35.80;32.50;;;;;;5096609;28;20430;-48
2022/05/04 11:24:14;;;;;;;4.77;4.00;;;35.70;32.60;;;;;;5097300;28;20512;-49
2022/05/04 11:26:49;;;;;;;4.97;3.87;;;35.50;32.50;;;;;;5078794;28;20461;-46
2022/05/04 11:29:17;;;;;;;4.83;3.67;;;35.20;32.60;;;;;;5095918;28;20400;-45
2022/05/04 11:31:47;;;;;;;5.17;3.50;;;34.90;32.50;;;;;;5096277;28;20423;-46
2022/05/04 11:34:15;;;;;;;3.60;3.30;;;34.60;32.10;;;;;;5095328;28;20538;-44
2022/05/04 11:36:44;;;;;;;3.47;3.17;;;34.30;32.00;;;;;;5093767;28;20445;-46
2022/05/04 11:39:10;;;;;;;3.60;3.30;;;34.10;32.20;;;;;;5095224;28;20442;-45
2022/05/04 11:41:36;;;;;;;3.73;3.43;;;34.10;32.40;;;;;;5093042;28;20532;-43
2022/05/04 11:44:01;;;;;;;3.40;3.10;;;34.10;32.30;;;;;;5093863;28;20180;-47
2022/05/04 11:46:27;;;;;;;3.70;3.40;;;34.10;32.00;;;;;;5095937;28;20173;-45
2022/05/04 11:48:56;;;;;;;4.03;3.57;;;34.20;32.00;;;;;;5095133;28;20283;-48
2022/05/04 11:51:21;;;;;;;3.80;3.50;;;34.20;32.10;;;;;;5096131;28;20225;-46
2022/05/04 11:53:47;;;;;;;3.90;3.60;;;34.40;32.10;;;;;;5094855;28;20428;-45
2022/05/04 11:56:13;;;;;;;3.70;3.30;;;34.50;31.90;;;;;;5094431;28;20282;-45
2022/05/04 11:58:39;;;;;;;3.63;3.10;;;34.50;31.90;;;;;;5095912;28;20215;-44
2022/05/04 12:01:07;;;;;;;3.50;3.30;;;34.70;31.80;;;;;;5095556;28;20693;-45
2022/05/04 12:03:35;;;;;;;5.60;3.60;;;35.00;31.70;;;;;;5094207;28;20173;-47
2022/05/04 12:06:04;;;;;;;3.60;3.30;;;35.20;31.50;;;;;;5093593;28;20489;-44
2022/05/04 12:08:31;;;;;;;3.80;3.00;;;35.60;30.60;;;;;;5092968;28;20395;-43
2022/05/04 12:10:56;;;;;;;3.70;3.40;;;35.90;30.10;;;;;;5095258;28;20427;-47
2022/05/04 12:13:24;;;;;;;3.00;2.73;;;36.00;30.00;;;;;;5093333;28;20683;-46
2022/05/04 12:15:56;;;;;;;3.03;2.83;;;35.80;29.90;;;;;;5093761;28;20180;-47
2022/05/04 12:18:30;;;;;;;4.00;3.70;;;35.60;29.80;;;;;;5094487;28;20465;-46
2022/05/04 12:20:56;;;;;;;3.43;3.13;;;35.30;29.60;;;;;;5094828;28;20401;-47
2022/05/04 12:23:23;;;;;;;2.47;2.27;;;34.80;29.90;;;;;;5092551;28;20401;-49
2022/05/04 12:25:48;;;;;;;5.63;2.20;;;34.30;30.30;;;;;;5092619;28;20475;-44
2022/05/04 12:28:14;;;;;;;3.93;2.00;;;33.80;31.20;;;;;;5093820;28;20441;-47
2022/05/04 12:33:33;;;;;;;4.20;3.33;;;32.90;31.10;;;;;;5094880;28;20705;-48
2022/05/04 12:36:05;;;;;;;8.33;2.77;;;32.20;31.20;;;;;;5093205;28;20965;-44
2022/05/04 12:38:32;;;;;;;2.80;2.60;;;31.80;31.80;;;;;;5092938;28;20447;-48
2022/05/04 12:40:59;;;;;;;4.33;3.93;;;31.30;31.80;;;;;;5092316;28;20401;-46
2022/05/04 12:43:26;;;;;;;3.63;3.30;;;30.50;33.10;;;;;;5092184;28;20426;-43
2022/05/04 12:45:54;;;;;;;5.33;3.40;;;29.60;34.40;;;;;;5094260;28;20883;-47
2022/05/04 12:48:28;;;;;;;4.03;3.60;;;28.90;35.40;;;;;;5094037;28;20880;-46
2022/05/04 12:50:57;;;;;;;4.80;4.50;;;28.10;36.70;;;;;;5094285;28;20400;-46
2022/05/04 12:53:27;;;;;;;5.03;4.63;;;27.40;37.80;;;;;;5095369;28;20694;-46
2022/05/04 12:58:37;;;;;;;5.07;4.60;;;26.20;39.70;;;;;;5092989;28;20969;-48
2022/05/04 13:01:04;;;;;;;5.10;4.70;;;25.60;40.30;;;;;;5094538;28;20464;-44
2022/05/04 13:03:30;;;;;;;5.40;4.90;;;25.10;41.30;;;;;;5092934;28;20506;-47
2022/05/04 13:05:56;;;;;;;5.17;4.67;;;24.50;42.30;;;;;;5093286;28;20440;-44
2022/05/04 13:08:21;;;;;;;4.77;4.33;;;24.20;43.10;;;;;;5095227;28;20436;-42
2022/05/04 13:10:48;;;;;;;4.37;4.07;;;23.80;43.50;;;;;;5093960;28;20173;-45
2022/05/04 13:13:20;;;;;;;5.03;4.73;;;23.40;43.80;;;;;;5092675;28;20272;-45
2022/05/04 13:15:52;;;;;;;5.07;4.00;;;23.00;43.90;;;;;;5094556;28;20420;-44
2022/05/04 13:18:19;;;;;;;4.13;3.60;;;22.60;44.30;;;;;;5098545;28;20463;-40
2022/05/04 13:20:45;;;;;;;3.57;3.10;;;22.20;44.70;;;;;;5097393;28;20421;-48